首页
METAR-TAF:

METAR-TAF

机场 :

拉纳卡, 塞浦路斯

拉纳卡国际机场

纬度: 34-53N, 经度: 033-38E, 海拔: 2米

当前天气观测

该预报发布于25分钟前的06:30 UTC
风速8节,风向东北
温度 25°C
湿度 44%
气压 1011 hPa
能见度10公里或以上
1500米以下无云,无积雨云

METAR: LCLK 250630Z 05008KT CAVOK 25/12 Q1011 NOSIG

时间: 09:55 (06:55 UTC)

预报

该预报发布于1小时和25分钟前的05:30 UTC
预报有效从25日的 06点(UTC)到 26日的 06点(UTC)
风速16节,风向东北
能见度10公里或以上
少量云层高于5000英尺
几率 30% :
短暂存在
从 25日的 12点(UTC)到 26日的 06点(UTC)
风速10节,风向北转西北
能見度: 5000
浮尘

TAF: LCLK 250530Z 2506/2606 05016KT 9999 FEW050 PROB30 TEMPO 2512/2606 5000 DU 2520/2523 34010KT

超过4000个机场的气象观测和天气预报(METAR&TAF报告)。

可查询的气象台以黄色和红色小点在地图上表示。

将鼠标移到小点上方,可查看气象台名称。

然后点击查看天气观测和预报。

如需切换地图:点击带黑十字的绿色按钮放大地图;点击带横线的绿色按钮缩小地图;或者点击绿色箭头查看邻近地区的地图。


METAR-TAF: